createdAt,value
2023-02-07T00:04:58.002Z,102735.67
2023-02-07T00:09:59.779Z,102732.81
2023-02-07T00:15:01.314Z,102728.38
2023-02-07T00:20:04.252Z,102735.00
2023-02-07T00:25:06.330Z,102731.61
2023-02-07T00:30:09.029Z,102729.80
2023-02-07T00:35:10.699Z,102738.19
2023-02-07T00:40:12.333Z,102736.73
2023-02-07T00:45:14.042Z,102726.31
2023-02-07T00:50:16.227Z,102722.23
2023-02-07T00:55:17.999Z,102730.30
2023-02-07T01:00:19.774Z,102743.28
2023-02-07T01:05:21.458Z,102746.95
2023-02-07T01:10:24.453Z,102736.21
2023-02-07T01:15:26.233Z,102735.51
2023-02-07T01:20:28.564Z,102733.55
2023-02-07T01:25:30.291Z,102727.76
2023-02-07T01:30:32.457Z,102727.59
2023-02-07T01:35:34.554Z,102721.25
2023-02-07T01:40:37.559Z,102723.70
2023-02-07T01:45:39.945Z,102730.89
2023-02-07T01:50:43.237Z,102729.33
2023-02-07T01:55:45.748Z,102723.17
2023-02-07T02:00:47.725Z,102721.08
2023-02-07T02:05:53.796Z,102716.34
2023-02-07T02:10:55.261Z,102704.38
2023-02-07T02:16:16.996Z,102700.70
2023-02-07T02:21:31.071Z,102699.29
2023-02-07T02:26:41.965Z,102701.58
2023-02-07T02:32:02.880Z,102702.11
2023-02-07T02:37:10.809Z,102702.09
2023-02-07T02:42:15.751Z,102703.14
2023-02-07T02:47:18.451Z,102706.48
2023-02-07T02:52:20.322Z,102711.77
2023-02-07T02:57:28.445Z,102713.36
2023-02-07T03:02:38.412Z,102710.91
2023-02-07T03:07:40.085Z,102707.22
2023-02-07T03:12:51.592Z,102705.48
2023-02-07T03:18:09.541Z,102720.59
2023-02-07T03:23:12.032Z,102713.91
2023-02-07T03:28:15.494Z,102692.66
2023-02-07T03:33:19.035Z,102693.02
2023-02-07T03:38:21.137Z,102687.05
2023-02-07T03:43:24.775Z,102684.42
2023-02-07T03:48:26.322Z,102679.35
2023-02-07T03:53:27.894Z,102681.84
2023-02-07T03:58:29.469Z,102680.80
2023-02-07T04:03:31.041Z,102680.65
2023-02-07T04:08:33.119Z,102684.52
2023-02-07T04:13:34.906Z,102682.08
2023-02-07T04:18:36.531Z,102680.00
2023-02-07T04:23:38.134Z,102676.17
2023-02-07T04:28:39.702Z,102673.20
2023-02-07T04:33:41.782Z,102668.83
2023-02-07T04:38:43.452Z,102682.73
2023-02-07T04:43:44.958Z,102696.59
2023-02-07T04:48:48.126Z,102693.24
2023-02-07T04:53:49.696Z,102686.59
2023-02-07T04:58:51.163Z,102690.46
2023-02-07T05:03:52.747Z,102685.71
2023-02-07T05:08:54.306Z,102679.92
2023-02-07T05:13:55.872Z,102680.81
2023-02-07T05:18:57.652Z,102684.69
2023-02-07T05:23:59.323Z,102691.70
2023-02-07T05:29:00.899Z,102697.52
2023-02-07T05:34:02.978Z,102698.40
2023-02-07T05:39:04.744Z,102695.06
2023-02-07T05:44:06.725Z,102686.98
2023-02-07T05:49:08.496Z,102678.90
2023-02-07T05:54:10.092Z,102677.69
2023-02-07T05:59:11.630Z,102681.92
2023-02-07T06:04:13.198Z,102690.88
2023-02-07T06:09:15.180Z,102695.27
2023-02-07T06:14:17.160Z,102698.09
2023-02-07T06:19:18.725Z,102695.80
2023-02-07T06:24:21.935Z,102698.98
2023-02-07T06:29:23.608Z,102706.13
2023-02-07T06:34:25.793Z,102708.55
2023-02-07T06:39:27.361Z,102704.27
2023-02-07T06:44:28.993Z,102706.11
2023-02-07T06:49:31.115Z,102714.84
2023-02-07T06:54:33.103Z,102728.34
2023-02-07T06:59:35.483Z,102733.75
2023-02-07T07:04:37.260Z,102741.23
2023-02-07T07:09:40.162Z,102750.89
2023-02-07T07:14:41.732Z,102759.30
2023-02-07T07:19:43.610Z,102771.86
2023-02-07T07:24:45.489Z,102774.38
2023-02-07T07:29:47.077Z,102770.21
2023-02-07T07:34:49.961Z,102769.84
2023-02-07T07:39:51.527Z,102768.73
2023-02-07T07:44:53.298Z,102776.83
2023-02-07T07:49:55.376Z,102776.91
2023-02-07T07:54:56.861Z,102776.75
2023-02-07T07:59:58.719Z,102773.67
2023-02-07T08:05:00.393Z,102767.86
2023-02-07T08:10:07.090Z,102755.08
2023-02-07T08:15:10.188Z,102758.45
2023-02-07T08:20:12.734Z,102762.23
2023-02-07T08:25:15.684Z,102760.44
2023-02-07T08:30:18.688Z,102758.48
2023-02-07T08:35:21.071Z,102760.12
2023-02-07T08:40:25.393Z,102754.79
2023-02-07T08:45:28.619Z,102745.73
2023-02-07T08:50:31.006Z,102741.29
2023-02-07T08:55:33.085Z,102747.09
2023-02-07T09:00:35.781Z,102742.96
2023-02-07T09:05:39.306Z,102743.04
2023-02-07T09:10:41.810Z,102741.48
2023-02-07T09:15:44.992Z,102739.85
2023-02-07T09:20:47.587Z,102749.88
2023-02-07T09:25:50.594Z,102747.09
2023-02-07T09:30:52.974Z,102737.81
2023-02-07T09:35:55.472Z,102738.45
2023-02-07T09:40:59.400Z,102739.10
2023-02-07T09:46:04.328Z,102736.91
2023-02-07T09:51:08.987Z,102735.83
2023-02-07T09:56:10.863Z,102740.45
2023-02-07T10:01:17.507Z,102752.75
2023-02-07T10:06:26.890Z,102756.33
2023-02-07T10:11:28.955Z,102758.39
2023-02-07T10:16:33.757Z,102760.08
2023-02-07T10:21:50.650Z,102758.64
2023-02-07T10:27:12.310Z,102761.12
2023-02-07T10:32:17.748Z,102769.35
2023-02-07T10:37:20.963Z,102768.84
2023-02-07T10:42:23.552Z,102772.71
2023-02-07T10:47:27.390Z,102774.79
2023-02-07T10:52:35.090Z,102768.58
2023-02-07T10:57:37.610Z,102763.73
2023-02-07T11:02:48.841Z,102764.26
2023-02-07T11:07:57.921Z,102761.55
2023-02-07T11:13:01.141Z,102756.72
2023-02-07T11:18:04.541Z,102755.13
2023-02-07T11:23:15.960Z,102757.08
2023-02-07T11:28:26.522Z,102748.79
2023-02-07T11:33:29.125Z,102749.35
2023-02-07T11:38:30.791Z,102756.95
2023-02-07T11:43:33.892Z,102760.84
2023-02-07T11:48:37.436Z,102762.84
2023-02-07T11:53:41.865Z,102761.44
2023-02-07T11:58:49.158Z,102758.91
2023-02-07T12:03:58.924Z,102752.17
2023-02-07T12:09:01.812Z,102740.11
2023-02-07T12:14:11.896Z,102731.10
2023-02-07T12:19:28.609Z,102735.23
2023-02-07T12:24:43.190Z,102741.68
2023-02-07T12:30:05.031Z,102743.39
2023-02-07T12:35:18.196Z,102748.30
2023-02-07T12:40:46.270Z,102753.92
2023-02-07T12:46:00.592Z,102756.46
2023-02-07T12:51:15.410Z,102746.00
2023-02-07T12:56:26.200Z,102743.27
2023-02-07T13:01:51.197Z,102739.77
2023-02-07T13:06:59.021Z,102738.60
2023-02-07T13:12:20.965Z,102738.27
2023-02-07T13:17:35.943Z,102734.59
2023-02-07T13:22:50.831Z,102738.77
2023-02-07T13:27:54.263Z,102743.44
2023-02-07T13:32:59.290Z,102744.31
2023-02-07T13:38:12.123Z,102745.52
2023-02-07T13:43:18.515Z,102747.77
2023-02-07T13:48:36.052Z,102748.61
2023-02-07T13:53:46.121Z,102752.03
2023-02-07T13:59:06.532Z,102755.63
2023-02-07T14:04:10.979Z,102761.15
2023-02-07T14:09:23.701Z,102763.28
2023-02-07T14:14:25.282Z,102761.85
2023-02-07T14:19:39.437Z,102763.98
2023-02-07T14:24:49.619Z,102761.40
2023-02-07T14:29:53.421Z,102758.73
2023-02-07T14:50:30.958Z,102777.15
2023-02-07T14:55:46.259Z,102790.27
2023-02-07T15:00:54.962Z,102785.45
2023-02-07T15:06:03.499Z,102788.33
2023-02-07T15:11:12.025Z,102793.42
2023-02-07T15:16:19.991Z,102804.88
2023-02-07T15:21:40.048Z,102808.89
2023-02-07T15:26:51.203Z,102807.77
2023-02-07T15:31:55.498Z,102814.22
2023-02-07T15:37:14.605Z,102817.49
2023-02-07T15:42:19.893Z,102819.83
2023-02-07T15:47:29.370Z,102823.03
2023-02-07T15:52:39.001Z,102827.60
2023-02-07T15:57:44.459Z,102829.20
2023-02-07T16:02:57.214Z,102829.95
2023-02-07T16:08:02.067Z,102839.70
2023-02-07T16:13:19.615Z,102844.70
2023-02-07T16:18:47.088Z,102847.95
2023-02-07T16:23:54.626Z,102853.78
2023-02-07T16:28:58.681Z,102858.02
2023-02-07T16:34:02.924Z,102860.84
2023-02-07T16:39:09.971Z,102868.18
2023-02-07T16:44:18.583Z,102867.25
2023-02-07T16:49:25.889Z,102867.13
2023-02-07T16:54:29.920Z,102868.92
2023-02-07T16:59:33.330Z,102866.45
2023-02-07T17:04:37.357Z,102868.20
2023-02-07T17:09:40.772Z,102872.06
2023-02-07T17:14:44.794Z,102874.52
2023-02-07T17:19:50.465Z,102869.27
2023-02-07T17:24:54.179Z,102864.72
2023-02-07T17:29:57.697Z,102872.52
2023-02-07T17:35:01.525Z,102876.85
2023-02-07T17:40:19.877Z,102880.63
2023-02-07T17:45:28.064Z,102890.04
2023-02-07T17:50:36.018Z,102891.00
2023-02-07T17:55:39.738Z,102902.48
2023-02-07T18:00:43.572Z,102907.96
2023-02-07T18:05:48.818Z,102908.55
2023-02-07T18:10:52.028Z,102910.00
2023-02-07T18:15:55.352Z,102917.95
2023-02-07T18:20:58.960Z,102922.93
2023-02-07T18:26:02.772Z,102932.84
2023-02-07T18:31:14.645Z,102946.07
2023-02-07T18:36:21.692Z,102948.88
2023-02-07T18:41:26.849Z,102953.25
2023-02-07T18:46:32.508Z,102955.31
2023-02-07T18:51:36.432Z,102954.93
2023-02-07T18:56:42.203Z,102945.42
2023-02-07T19:01:48.506Z,102941.72
2023-02-07T19:06:52.690Z,102939.75
2023-02-07T19:12:00.033Z,102941.98
2023-02-07T19:17:03.538Z,102945.47
2023-02-07T19:22:06.852Z,102945.10
2023-02-07T19:27:10.369Z,102939.29
2023-02-07T19:32:14.571Z,102942.60
2023-02-07T19:37:19.341Z,102943.65
2023-02-07T19:42:25.944Z,102949.63
2023-02-07T19:47:29.544Z,102959.99
2023-02-07T19:52:33.675Z,102963.67
2023-02-07T19:57:37.193Z,102969.27
2023-02-07T20:02:40.600Z,102970.48
2023-02-07T20:07:45.241Z,102963.46
2023-02-07T20:12:49.533Z,102965.05
2023-02-07T20:17:54.434Z,102968.72
2023-02-07T20:22:57.741Z,102971.70
2023-02-07T20:28:01.381Z,102971.50
2023-02-07T20:33:04.673Z,102969.23
2023-02-07T20:38:08.184Z,102972.25
2023-02-07T20:43:11.497Z,102969.34
2023-02-07T20:48:16.770Z,102972.05
2023-02-07T20:53:19.965Z,102982.66
2023-02-07T20:58:23.133Z,102988.55
2023-02-07T21:03:26.700Z,102990.17
2023-02-07T21:08:30.829Z,102989.65
2023-02-07T21:13:35.567Z,102996.65
2023-02-07T21:18:38.667Z,103005.57
2023-02-07T21:23:42.897Z,103006.23
2023-02-07T21:28:47.440Z,103017.41
2023-02-07T21:33:51.562Z,103019.27
2023-02-07T21:38:56.631Z,103027.99
2023-02-07T21:44:00.657Z,103027.97
2023-02-07T21:49:10.915Z,103032.12
2023-02-07T21:54:14.025Z,103038.23
2023-02-07T21:59:19.690Z,103041.73
2023-02-07T22:04:22.793Z,103052.02
2023-02-07T22:09:26.063Z,103059.72
2023-02-07T22:14:30.345Z,103060.41
2023-02-07T22:19:33.958Z,103058.08
2023-02-07T22:24:37.061Z,103056.80
2023-02-07T22:29:40.469Z,103050.08
2023-02-07T22:34:46.245Z,103046.15
2023-02-07T22:39:50.263Z,103044.37
2023-02-07T22:44:53.371Z,103048.17
2023-02-07T22:49:56.476Z,103053.59
2023-02-07T22:54:59.584Z,103063.04
2023-02-07T23:00:07.813Z,103065.29
2023-02-07T23:05:11.481Z,103062.27
2023-02-07T23:10:15.649Z,103067.70
2023-02-07T23:15:18.864Z,103070.84
2023-02-07T23:20:21.970Z,103071.18
2023-02-07T23:25:25.700Z,103074.17
2023-02-07T23:30:28.934Z,103074.73
2023-02-07T23:35:34.563Z,103070.00
2023-02-07T23:40:38.122Z,103065.09
2023-02-07T23:45:41.395Z,103064.04
2023-02-07T23:50:44.600Z,103070.36
2023-02-07T23:55:49.664Z,103074.23
